sensor_id;sensor_type;location;lat;lon;timestamp;P1;durP1;ratioP1;P2;durP2;ratioP2
17496;SDS011;62150;43.582;1.456;2024-03-02T04:40:38;8.70;;;3.97;;
17496;SDS011;62150;43.582;1.456;2024-03-02T04:43:05;9.17;;;3.80;;
17496;SDS011;62150;43.582;1.456;2024-03-02T04:45:34;8.57;;;3.73;;
17496;SDS011;62150;43.582;1.456;2024-03-02T04:48:02;8.67;;;3.70;;
17496;SDS011;62150;43.582;1.456;2024-03-02T04:50:30;8.47;;;3.77;;
17496;SDS011;62150;43.582;1.456;2024-03-02T04:52:57;9.97;;;3.93;;
17496;SDS011;62150;43.582;1.456;2024-03-02T04:55:25;9.37;;;3.77;;
17496;SDS011;62150;43.582;1.456;2024-03-02T04:58:17;9.33;;;3.93;;
17496;SDS011;62150;43.582;1.456;2024-03-02T05:00:44;9.30;;;3.90;;
17496;SDS011;62150;43.582;1.456;2024-03-02T05:03:12;8.80;;;3.80;;
17496;SDS011;62150;43.582;1.456;2024-03-02T05:05:40;9.27;;;4.17;;
17496;SDS011;62150;43.582;1.456;2024-03-02T05:08:07;8.77;;;4.03;;
17496;SDS011;62150;43.582;1.456;2024-03-02T05:10:37;9.43;;;4.20;;
17496;SDS011;62150;43.582;1.456;2024-03-02T05:13:04;9.07;;;4.10;;
17496;SDS011;62150;43.582;1.456;2024-03-02T05:15:32;8.73;;;4.10;;
17496;SDS011;62150;43.582;1.456;2024-03-02T05:18:00;8.23;;;3.97;;
17496;SDS011;62150;43.582;1.456;2024-03-02T05:20:30;8.57;;;3.80;;
17496;SDS011;62150;43.582;1.456;2024-03-02T05:22:57;8.83;;;3.87;;
17496;SDS011;62150;43.582;1.456;2024-03-02T05:25:25;8.67;;;3.87;;
17496;SDS011;62150;43.582;1.456;2024-03-02T05:27:52;7.80;;;3.73;;
17496;SDS011;62150;43.582;1.456;2024-03-02T05:30:21;8.83;;;4.00;;
17496;SDS011;62150;43.582;1.456;2024-03-02T05:32:52;9.73;;;3.83;;
17496;SDS011;62150;43.582;1.456;2024-03-02T05:35:19;8.93;;;4.20;;
17496;SDS011;62150;43.582;1.456;2024-03-02T05:37:47;9.73;;;4.00;;
17496;SDS011;62150;43.582;1.456;2024-03-02T05:40:14;10.47;;;4.17;;
17496;SDS011;62150;43.582;1.456;2024-03-02T05:42:42;9.13;;;3.80;;
17496;SDS011;62150;43.582;1.456;2024-03-02T05:45:10;9.03;;;3.80;;
17496;SDS011;62150;43.582;1.456;2024-03-02T05:47:37;9.07;;;4.00;;
17496;SDS011;62150;43.582;1.456;2024-03-02T05:50:07;8.57;;;3.70;;
17496;SDS011;62150;43.582;1.456;2024-03-02T05:52:35;9.20;;;3.97;;
17496;SDS011;62150;43.582;1.456;2024-03-02T05:55:02;7.97;;;3.70;;
17496;SDS011;62150;43.582;1.456;2024-03-02T05:57:30;8.77;;;3.97;;
17496;SDS011;62150;43.582;1.456;2024-03-02T06:00:12;8.17;;;3.53;;
17496;SDS011;62150;43.582;1.456;2024-03-02T06:02:42;8.50;;;3.70;;
17496;SDS011;62150;43.582;1.456;2024-03-02T06:05:12;9.23;;;3.67;;
17496;SDS011;62150;43.582;1.456;2024-03-02T06:07:40;8.37;;;3.67;;
17496;SDS011;62150;43.582;1.456;2024-03-02T06:10:08;7.13;;;3.47;;
17496;SDS011;62150;43.582;1.456;2024-03-02T06:12:36;8.20;;;3.77;;
17496;SDS011;62150;43.582;1.456;2024-03-02T06:15:04;8.73;;;3.50;;
17496;SDS011;62150;43.582;1.456;2024-03-02T06:17:32;7.30;;;3.40;;
17496;SDS011;62150;43.582;1.456;2024-03-02T06:20:02;8.00;;;3.33;;
17496;SDS011;62150;43.582;1.456;2024-03-02T06:22:33;8.87;;;3.30;;
17496;SDS011;62150;43.582;1.456;2024-03-02T06:25:01;6.87;;;3.23;;
17496;SDS011;62150;43.582;1.456;2024-03-02T06:27:28;6.93;;;3.20;;
17496;SDS011;62150;43.582;1.456;2024-03-02T06:29:56;8.07;;;3.17;;
17496;SDS011;62150;43.582;1.456;2024-03-02T06:32:23;7.17;;;3.50;;
17496;SDS011;62150;43.582;1.456;2024-03-02T06:34:51;8.47;;;3.43;;
17496;SDS011;62150;43.582;1.456;2024-03-02T06:37:18;7.93;;;3.27;;
17496;SDS011;62150;43.582;1.456;2024-03-02T06:39:47;6.70;;;3.30;;
17496;SDS011;62150;43.582;1.456;2024-03-02T06:42:15;6.50;;;3.30;;
17496;SDS011;62150;43.582;1.456;2024-03-02T06:44:42;6.83;;;3.20;;
17496;SDS011;62150;43.582;1.456;2024-03-02T06:47:10;6.77;;;3.20;;
17496;SDS011;62150;43.582;1.456;2024-03-02T06:49:37;6.80;;;3.30;;
17496;SDS011;62150;43.582;1.456;2024-03-02T06:52:05;7.43;;;3.33;;
17496;SDS011;62150;43.582;1.456;2024-03-02T06:54:33;6.50;;;3.00;;
17496;SDS011;62150;43.582;1.456;2024-03-02T06:57:02;7.97;;;3.30;;
17496;SDS011;62150;43.582;1.456;2024-03-02T06:59:30;6.73;;;3.07;;
17496;SDS011;62150;43.582;1.456;2024-03-02T07:01:58;6.13;;;3.00;;
17496;SDS011;62150;43.582;1.456;2024-03-02T07:04:26;7.23;;;3.17;;
17496;SDS011;62150;43.582;1.456;2024-03-02T07:06:54;7.03;;;3.13;;
17496;SDS011;62150;43.582;1.456;2024-03-02T07:09:22;6.27;;;3.10;;
17496;SDS011;62150;43.582;1.456;2024-03-02T07:11:50;6.37;;;3.00;;
17496;SDS011;62150;43.582;1.456;2024-03-02T07:14:19;7.17;;;3.10;;
17496;SDS011;62150;43.582;1.456;2024-03-02T07:16:47;7.33;;;3.00;;
17496;SDS011;62150;43.582;1.456;2024-03-02T07:19:14;7.27;;;2.80;;
17496;SDS011;62150;43.582;1.456;2024-03-02T07:21:41;8.37;;;3.30;;
17496;SDS011;62150;43.582;1.456;2024-03-02T07:24:09;6.63;;;3.10;;
17496;SDS011;62150;43.582;1.456;2024-03-02T07:26:38;7.23;;;3.10;;
17496;SDS011;62150;43.582;1.456;2024-03-02T07:29:06;7.67;;;3.10;;
17496;SDS011;62150;43.582;1.456;2024-03-02T07:31:34;6.73;;;3.03;;
17496;SDS011;62150;43.582;1.456;2024-03-02T07:34:02;7.67;;;3.37;;
17496;SDS011;62150;43.582;1.456;2024-03-02T07:36:29;8.10;;;3.60;;
17496;SDS011;62150;43.582;1.456;2024-03-02T07:38:58;7.47;;;3.63;;
17496;SDS011;62150;43.582;1.456;2024-03-02T07:41:25;9.60;;;3.63;;
17496;SDS011;62150;43.582;1.456;2024-03-02T07:43:53;7.50;;;3.60;;
17496;SDS011;62150;43.582;1.456;2024-03-02T07:46:21;8.07;;;3.80;;
17496;SDS011;62150;43.582;1.456;2024-03-02T07:48:50;8.27;;;3.60;;
17496;SDS011;62150;43.582;1.456;2024-03-02T07:51:18;7.97;;;3.30;;
17496;SDS011;62150;43.582;1.456;2024-03-02T07:53:46;8.33;;;3.53;;
17496;SDS011;62150;43.582;1.456;2024-03-02T07:56:14;8.73;;;3.87;;
17496;SDS011;62150;43.582;1.456;2024-03-02T07:58:47;7.97;;;3.50;;
17496;SDS011;62150;43.582;1.456;2024-03-02T08:01:15;7.00;;;3.60;;
17496;SDS011;62150;43.582;1.456;2024-03-02T08:03:42;7.60;;;3.50;;
17496;SDS011;62150;43.582;1.456;2024-03-02T08:06:14;7.43;;;3.40;;
17496;SDS011;62150;43.582;1.456;2024-03-02T08:08:42;7.80;;;3.27;;
17496;SDS011;62150;43.582;1.456;2024-03-02T08:11:10;6.90;;;3.27;;
17496;SDS011;62150;43.582;1.456;2024-03-02T08:13:37;7.80;;;3.33;;
17496;SDS011;62150;43.582;1.456;2024-03-02T08:16:05;8.27;;;3.53;;
17496;SDS011;62150;43.582;1.456;2024-03-02T08:18:34;8.20;;;3.20;;
17496;SDS011;62150;43.582;1.456;2024-03-02T08:21:02;7.60;;;3.23;;
17496;SDS011;62150;43.582;1.456;2024-03-02T08:23:32;8.03;;;3.17;;
17496;SDS011;62150;43.582;1.456;2024-03-02T08:26:00;8.10;;;3.10;;
17496;SDS011;62150;43.582;1.456;2024-03-02T08:28:28;8.37;;;3.23;;
17496;SDS011;62150;43.582;1.456;2024-03-02T08:30:55;6.27;;;3.10;;
17496;SDS011;62150;43.582;1.456;2024-03-02T08:33:23;5.90;;;2.90;;
17496;SDS011;62150;43.582;1.456;2024-03-02T08:35:50;6.67;;;3.20;;
17496;SDS011;62150;43.582;1.456;2024-03-02T08:38:18;6.57;;;2.90;;
17496;SDS011;62150;43.582;1.456;2024-03-02T08:40:47;6.73;;;3.03;;
17496;SDS011;62150;43.582;1.456;2024-03-02T08:43:16;7.20;;;3.03;;
17496;SDS011;62150;43.582;1.456;2024-03-02T08:45:44;8.03;;;3.13;;
17496;SDS011;62150;43.582;1.456;2024-03-02T08:48:12;6.27;;;2.90;;
17496;SDS011;62150;43.582;1.456;2024-03-02T08:50:39;6.30;;;3.33;;
17496;SDS011;62150;43.582;1.456;2024-03-02T08:53:07;8.90;;;3.60;;
17496;SDS011;62150;43.582;1.456;2024-03-02T08:55:35;9.20;;;3.37;;
17496;SDS011;62150;43.582;1.456;2024-03-02T08:58:04;7.83;;;2.90;;
17496;SDS011;62150;43.582;1.456;2024-03-02T09:00:32;6.43;;;2.80;;
17496;SDS011;62150;43.582;1.456;2024-03-02T09:02:59;8.07;;;3.20;;
17496;SDS011;62150;43.582;1.456;2024-03-02T09:05:27;8.20;;;3.10;;
17496;SDS011;62150;43.582;1.456;2024-03-02T09:07:54;8.30;;;3.20;;
17496;SDS011;62150;43.582;1.456;2024-03-02T09:10:22;7.43;;;3.20;;
17496;SDS011;62150;43.582;1.456;2024-03-02T09:12:50;8.37;;;3.20;;
17496;SDS011;62150;43.582;1.456;2024-03-02T09:15:18;7.93;;;2.97;;
17496;SDS011;62150;43.582;1.456;2024-03-02T09:17:46;8.70;;;3.07;;
17496;SDS011;62150;43.582;1.456;2024-03-02T09:20:13;7.17;;;3.00;;
17496;SDS011;62150;43.582;1.456;2024-03-02T09:22:41;5.97;;;2.70;;
17496;SDS011;62150;43.582;1.456;2024-03-02T09:25:09;7.77;;;2.83;;
17496;SDS011;62150;43.582;1.456;2024-03-02T09:27:36;6.13;;;3.13;;
17496;SDS011;62150;43.582;1.456;2024-03-02T09:30:07;9.83;;;3.17;;
17496;SDS011;62150;43.582;1.456;2024-03-02T09:32:37;7.70;;;3.10;;
17496;SDS011;62150;43.582;1.456;2024-03-02T09:35:05;7.83;;;3.10;;
17496;SDS011;62150;43.582;1.456;2024-03-02T09:37:33;9.73;;;3.40;;
17496;SDS011;62150;43.582;1.456;2024-03-02T09:40:01;7.83;;;3.03;;
17496;SDS011;62150;43.582;1.456;2024-03-02T09:42:28;9.47;;;3.23;;
17496;SDS011;62150;43.582;1.456;2024-03-02T09:44:57;6.20;;;2.63;;
17496;SDS011;62150;43.582;1.456;2024-03-02T09:47:30;8.07;;;2.93;;
17496;SDS011;62150;43.582;1.456;2024-03-02T09:49:59;9.17;;;3.03;;
17496;SDS011;62150;43.582;1.456;2024-03-02T09:52:26;8.90;;;3.30;;
17496;SDS011;62150;43.582;1.456;2024-03-02T09:54:54;8.30;;;3.10;;
17496;SDS011;62150;43.582;1.456;2024-03-02T09:57:21;8.13;;;2.97;;
17496;SDS011;62150;43.582;1.456;2024-03-02T09:59:49;10.80;;;3.57;;
17496;SDS011;62150;43.582;1.456;2024-03-02T10:02:17;8.33;;;2.93;;
17496;SDS011;62150;43.582;1.456;2024-03-02T10:04:44;8.47;;;3.13;;
17496;SDS011;62150;43.582;1.456;2024-03-02T10:07:14;8.23;;;3.00;;
17496;SDS011;62150;43.582;1.456;2024-03-02T10:09:42;7.07;;;3.03;;
17496;SDS011;62150;43.582;1.456;2024-03-02T10:12:11;9.17;;;2.97;;
17496;SDS011;62150;43.582;1.456;2024-03-02T10:14:40;7.73;;;3.17;;
17496;SDS011;62150;43.582;1.456;2024-03-02T10:17:08;9.33;;;3.03;;
17496;SDS011;62150;43.582;1.456;2024-03-02T10:19:36;9.73;;;3.10;;
17496;SDS011;62150;43.582;1.456;2024-03-02T10:22:05;7.90;;;2.93;;
17496;SDS011;62150;43.582;1.456;2024-03-02T10:24:38;9.73;;;2.90;;
17496;SDS011;62150;43.582;1.456;2024-03-02T10:27:07;8.20;;;3.10;;
17496;SDS011;62150;43.582;1.456;2024-03-02T10:29:39;6.43;;;2.70;;
17496;SDS011;62150;43.582;1.456;2024-03-02T10:32:12;9.67;;;3.00;;
17496;SDS011;62150;43.582;1.456;2024-03-02T10:34:40;9.63;;;3.20;;
17496;SDS011;62150;43.582;1.456;2024-03-02T10:37:09;9.10;;;3.33;;
17496;SDS011;62150;43.582;1.456;2024-03-02T10:39:39;5.60;;;2.80;;
17496;SDS011;62150;43.582;1.456;2024-03-02T10:42:07;9.23;;;3.50;;
17496;SDS011;62150;43.582;1.456;2024-03-02T10:44:35;9.33;;;3.27;;
17496;SDS011;62150;43.582;1.456;2024-03-02T10:47:03;8.60;;;3.07;;
17496;SDS011;62150;43.582;1.456;2024-03-02T10:49:31;7.57;;;3.33;;
17496;SDS011;62150;43.582;1.456;2024-03-02T10:51:59;7.13;;;3.33;;
17496;SDS011;62150;43.582;1.456;2024-03-02T10:54:27;7.27;;;3.20;;
17496;SDS011;62150;43.582;1.456;2024-03-02T10:57:02;9.60;;;3.50;;
17496;SDS011;62150;43.582;1.456;2024-03-02T10:59:32;10.23;;;3.63;;
17496;SDS011;62150;43.582;1.456;2024-03-02T11:02:01;9.17;;;3.30;;
17496;SDS011;62150;43.582;1.456;2024-03-02T11:04:32;8.20;;;3.27;;
17496;SDS011;62150;43.582;1.456;2024-03-02T11:07:02;8.87;;;3.30;;
17496;SDS011;62150;43.582;1.456;2024-03-02T11:09:33;9.47;;;3.20;;
17496;SDS011;62150;43.582;1.456;2024-03-02T11:12:06;7.87;;;3.10;;
17496;SDS011;62150;43.582;1.456;2024-03-02T11:14:40;10.20;;;3.63;;
17496;SDS011;62150;43.582;1.456;2024-03-02T11:17:09;6.37;;;3.00;;
17496;SDS011;62150;43.582;1.456;2024-03-02T11:19:40;8.70;;;3.10;;
17496;SDS011;62150;43.582;1.456;2024-03-02T11:22:09;8.67;;;3.10;;
17496;SDS011;62150;43.582;1.456;2024-03-02T11:24:37;8.53;;;3.00;;
17496;SDS011;62150;43.582;1.456;2024-03-02T11:27:06;9.60;;;3.20;;
17496;SDS011;62150;43.582;1.456;2024-03-02T11:29:43;11.80;;;3.80;;
17496;SDS011;62150;43.582;1.456;2024-03-02T11:32:20;9.10;;;2.93;;
17496;SDS011;62150;43.582;1.456;2024-03-02T11:34:49;7.87;;;2.90;;
17496;SDS011;62150;43.582;1.456;2024-03-02T11:37:17;9.70;;;3.40;;
17496;SDS011;62150;43.582;1.456;2024-03-02T11:39:46;8.33;;;3.20;;
17496;SDS011;62150;43.582;1.456;2024-03-02T11:42:17;7.77;;;3.30;;
17496;SDS011;62150;43.582;1.456;2024-03-02T11:44:47;9.67;;;3.10;;
17496;SDS011;62150;43.582;1.456;2024-03-02T11:47:16;12.83;;;4.40;;
17496;SDS011;62150;43.582;1.456;2024-03-02T11:49:44;9.40;;;3.60;;
17496;SDS011;62150;43.582;1.456;2024-03-02T11:52:12;8.60;;;3.50;;
17496;SDS011;62150;43.582;1.456;2024-03-02T11:54:43;9.67;;;3.00;;
17496;SDS011;62150;43.582;1.456;2024-03-02T11:57:13;10.67;;;3.13;;
17496;SDS011;62150;43.582;1.456;2024-03-02T11:59:43;8.73;;;2.83;;
17496;SDS011;62150;43.582;1.456;2024-03-02T12:02:15;9.40;;;3.00;;
17496;SDS011;62150;43.582;1.456;2024-03-02T12:04:43;8.50;;;2.70;;
17496;SDS011;62150;43.582;1.456;2024-03-02T12:07:11;5.40;;;2.80;;
17496;SDS011;62150;43.582;1.456;2024-03-02T12:09:44;8.00;;;2.83;;
17496;SDS011;62150;43.582;1.456;2024-03-02T12:12:11;7.07;;;3.03;;
17496;SDS011;62150;43.582;1.456;2024-03-02T12:14:50;7.47;;;2.93;;
17496;SDS011;62150;43.582;1.456;2024-03-02T12:17:20;8.00;;;2.70;;
17496;SDS011;62150;43.582;1.456;2024-03-02T12:19:49;6.67;;;2.97;;
17496;SDS011;62150;43.582;1.456;2024-03-02T12:22:17;7.23;;;2.90;;
17496;SDS011;62150;43.582;1.456;2024-03-02T12:24:45;6.60;;;3.00;;
17496;SDS011;62150;43.582;1.456;2024-03-02T12:27:13;6.67;;;2.70;;
17496;SDS011;62150;43.582;1.456;2024-03-02T12:29:44;9.13;;;2.70;;
17496;SDS011;62150;43.582;1.456;2024-03-02T12:32:12;8.77;;;3.00;;
17496;SDS011;62150;43.582;1.456;2024-03-02T12:34:40;6.93;;;2.60;;
17496;SDS011;62150;43.582;1.456;2024-03-02T12:37:08;8.37;;;2.90;;
17496;SDS011;62150;43.582;1.456;2024-03-02T12:39:39;9.47;;;2.93;;
17496;SDS011;62150;43.582;1.456;2024-03-02T12:42:06;6.90;;;2.83;;
17496;SDS011;62150;43.582;1.456;2024-03-02T12:44:34;7.47;;;3.00;;
17496;SDS011;62150;43.582;1.456;2024-03-02T12:47:03;9.60;;;3.10;;
17496;SDS011;62150;43.582;1.456;2024-03-02T12:49:31;10.20;;;3.10;;
17496;SDS011;62150;43.582;1.456;2024-03-02T12:51:59;7.10;;;2.97;;
17496;SDS011;62150;43.582;1.456;2024-03-02T12:54:27;6.80;;;2.90;;
17496;SDS011;62150;43.582;1.456;2024-03-02T12:56:56;7.03;;;2.93;;
17496;SDS011;62150;43.582;1.456;2024-03-02T12:59:24;7.77;;;2.87;;
17496;SDS011;62150;43.582;1.456;2024-03-02T13:01:52;8.00;;;3.00;;
17496;SDS011;62150;43.582;1.456;2024-03-02T13:04:24;7.43;;;3.00;;
17496;SDS011;62150;43.582;1.456;2024-03-02T13:06:53;9.13;;;3.10;;
17496;SDS011;62150;43.582;1.456;2024-03-02T13:09:22;6.87;;;3.10;;
17496;SDS011;62150;43.582;1.456;2024-03-02T13:11:50;6.73;;;2.80;;
17496;SDS011;62150;43.582;1.456;2024-03-02T13:14:21;7.50;;;2.90;;
17496;SDS011;62150;43.582;1.456;2024-03-02T13:16:50;8.40;;;2.73;;
17496;SDS011;62150;43.582;1.456;2024-03-02T13:19:17;7.37;;;2.90;;
17496;SDS011;62150;43.582;1.456;2024-03-02T13:21:47;6.00;;;2.57;;
17496;SDS011;62150;43.582;1.456;2024-03-02T13:24:15;6.87;;;2.70;;
17496;SDS011;62150;43.582;1.456;2024-03-02T13:26:45;8.10;;;2.83;;
17496;SDS011;62150;43.582;1.456;2024-03-02T13:29:12;7.37;;;2.70;;
17496;SDS011;62150;43.582;1.456;2024-03-02T13:31:40;7.10;;;2.90;;
17496;SDS011;62150;43.582;1.456;2024-03-02T13:34:07;6.97;;;2.93;;
17496;SDS011;62150;43.582;1.456;2024-03-02T13:36:34;6.30;;;2.70;;
17496;SDS011;62150;43.582;1.456;2024-03-02T13:39:03;6.70;;;2.80;;
17496;SDS011;62150;43.582;1.456;2024-03-02T13:41:30;8.70;;;2.87;;
17496;SDS011;62150;43.582;1.456;2024-03-02T13:43:58;7.87;;;2.93;;
17496;SDS011;62150;43.582;1.456;2024-03-02T13:46:26;8.83;;;3.10;;
17496;SDS011;62150;43.582;1.456;2024-03-02T13:48:54;8.37;;;2.80;;
17496;SDS011;62150;43.582;1.456;2024-03-02T13:51:22;6.23;;;2.60;;
17496;SDS011;62150;43.582;1.456;2024-03-02T13:53:50;7.53;;;2.80;;
17496;SDS011;62150;43.582;1.456;2024-03-02T13:56:19;7.87;;;2.90;;
17496;SDS011;62150;43.582;1.456;2024-03-02T13:58:47;8.93;;;3.60;;
17496;SDS011;62150;43.582;1.456;2024-03-02T14:01:15;8.13;;;2.83;;
17496;SDS011;62150;43.582;1.456;2024-03-02T14:03:42;8.33;;;2.70;;
17496;SDS011;62150;43.582;1.456;2024-03-02T14:06:11;7.20;;;3.23;;
17496;SDS011;62150;43.582;1.456;2024-03-02T14:08:39;9.40;;;3.20;;
17496;SDS011;62150;43.582;1.456;2024-03-02T14:11:09;6.97;;;2.63;;
17496;SDS011;62150;43.582;1.456;2024-03-02T14:13:41;6.63;;;2.70;;
17496;SDS011;62150;43.582;1.456;2024-03-02T14:16:12;6.10;;;2.47;;
17496;SDS011;62150;43.582;1.456;2024-03-02T14:18:40;6.43;;;2.67;;
17496;SDS011;62150;43.582;1.456;2024-03-02T14:21:07;6.27;;;2.67;;
17496;SDS011;62150;43.582;1.456;2024-03-02T14:23:35;6.07;;;2.50;;
17496;SDS011;62150;43.582;1.456;2024-03-02T14:26:02;6.53;;;2.70;;
17496;SDS011;62150;43.582;1.456;2024-03-02T14:28:30;6.63;;;2.50;;
17496;SDS011;62150;43.582;1.456;2024-03-02T14:30:59;6.40;;;2.90;;
17496;SDS011;62150;43.582;1.456;2024-03-02T14:33:27;5.73;;;2.50;;
17496;SDS011;62150;43.582;1.456;2024-03-02T14:35:55;5.50;;;2.40;;
17496;SDS011;62150;43.582;1.456;2024-03-02T14:38:23;5.57;;;2.20;;
17496;SDS011;62150;43.582;1.456;2024-03-02T14:40:50;6.53;;;2.50;;
17496;SDS011;62150;43.582;1.456;2024-03-02T14:43:18;6.83;;;2.50;;
17496;SDS011;62150;43.582;1.456;2024-03-02T14:45:45;6.90;;;2.60;;
17496;SDS011;62150;43.582;1.456;2024-03-02T14:48:14;6.33;;;2.70;;
17496;SDS011;62150;43.582;1.456;2024-03-02T14:50:42;7.13;;;2.50;;
17496;SDS011;62150;43.582;1.456;2024-03-02T14:53:10;6.20;;;2.47;;
17496;SDS011;62150;43.582;1.456;2024-03-02T14:55:37;7.43;;;2.70;;
17496;SDS011;62150;43.582;1.456;2024-03-02T14:58:05;10.00;;;2.87;;
17496;SDS011;62150;43.582;1.456;2024-03-02T15:00:33;9.60;;;3.03;;
17496;SDS011;62150;43.582;1.456;2024-03-02T15:03:00;6.40;;;2.50;;
17496;SDS011;62150;43.582;1.456;2024-03-02T15:05:32;9.17;;;2.90;;
17496;SDS011;62150;43.582;1.456;2024-03-02T15:07:59;8.83;;;2.93;;
17496;SDS011;62150;43.582;1.456;2024-03-02T15:10:29;6.73;;;2.97;;
17496;SDS011;62150;43.582;1.456;2024-03-02T15:12:57;8.63;;;2.77;;
17496;SDS011;62150;43.582;1.456;2024-03-02T15:15:25;6.93;;;2.77;;
17496;SDS011;62150;43.582;1.456;2024-03-02T15:17:52;5.60;;;2.43;;
17496;SDS011;62150;43.582;1.456;2024-03-02T15:20:20;6.47;;;2.60;;
17496;SDS011;62150;43.582;1.456;2024-03-02T15:22:54;7.13;;;2.73;;
17496;SDS011;62150;43.582;1.456;2024-03-02T15:25:21;6.73;;;3.00;;
17496;SDS011;62150;43.582;1.456;2024-03-02T15:27:49;6.77;;;2.60;;
17496;SDS011;62150;43.582;1.456;2024-03-02T15:30:16;6.67;;;3.13;;
17496;SDS011;62150;43.582;1.456;2024-03-02T15:32:44;6.30;;;2.63;;
17496;SDS011;62150;43.582;1.456;2024-03-02T15:35:12;7.63;;;2.80;;
17496;SDS011;62150;43.582;1.456;2024-03-02T15:37:39;6.90;;;2.73;;
17496;SDS011;62150;43.582;1.456;2024-03-02T15:40:09;5.73;;;2.50;;
17496;SDS011;62150;43.582;1.456;2024-03-02T15:42:37;6.40;;;2.80;;
17496;SDS011;62150;43.582;1.456;2024-03-02T15:45:05;9.17;;;3.60;;
17496;SDS011;62150;43.582;1.456;2024-03-02T15:47:34;7.37;;;3.40;;
17496;SDS011;62150;43.582;1.456;2024-03-02T15:50:02;8.70;;;3.33;;
17496;SDS011;62150;43.582;1.456;2024-03-02T15:52:31;7.60;;;2.97;;
17496;SDS011;62150;43.582;1.456;2024-03-02T15:54:59;7.87;;;3.27;;
17496;SDS011;62150;43.582;1.456;2024-03-02T15:57:30;6.50;;;3.10;;
17496;SDS011;62150;43.582;1.456;2024-03-02T15:59:58;5.17;;;2.60;;
17496;SDS011;62150;43.582;1.456;2024-03-02T16:02:25;5.83;;;2.40;;
17496;SDS011;62150;43.582;1.456;2024-03-02T16:04:53;7.63;;;3.00;;
17496;SDS011;62150;43.582;1.456;2024-03-02T16:07:20;8.10;;;3.17;;
17496;SDS011;62150;43.582;1.456;2024-03-02T16:09:57;10.10;;;3.40;;
17496;SDS011;62150;43.582;1.456;2024-03-02T16:12:29;7.40;;;3.10;;
17496;SDS011;62150;43.582;1.456;2024-03-02T16:14:57;6.93;;;2.90;;
17496;SDS011;62150;43.582;1.456;2024-03-02T16:17:24;6.73;;;2.67;;
17496;SDS011;62150;43.582;1.456;2024-03-02T16:19:52;4.77;;;2.40;;
17496;SDS011;62150;43.582;1.456;2024-03-02T16:22:21;6.53;;;2.63;;
17496;SDS011;62150;43.582;1.456;2024-03-02T16:24:50;6.00;;;2.77;;
17496;SDS011;62150;43.582;1.456;2024-03-02T16:27:17;6.73;;;2.60;;
17496;SDS011;62150;43.582;1.456;2024-03-02T16:29:46;6.20;;;2.50;;
17496;SDS011;62150;43.582;1.456;2024-03-02T16:32:14;7.60;;;3.00;;
17496;SDS011;62150;43.582;1.456;2024-03-02T16:34:41;6.23;;;2.50;;
17496;SDS011;62150;43.582;1.456;2024-03-02T16:37:10;6.47;;;2.60;;
17496;SDS011;62150;43.582;1.456;2024-03-02T16:39:38;5.20;;;2.50;;
17496;SDS011;62150;43.582;1.456;2024-03-02T16:42:05;7.23;;;2.70;;
17496;SDS011;62150;43.582;1.456;2024-03-02T16:44:33;6.23;;;2.63;;
17496;SDS011;62150;43.582;1.456;2024-03-02T16:47:02;8.03;;;2.93;;
17496;SDS011;62150;43.582;1.456;2024-03-02T16:49:30;6.10;;;3.03;;
17496;SDS011;62150;43.582;1.456;2024-03-02T16:51:57;10.90;;;4.43;;
17496;SDS011;62150;43.582;1.456;2024-03-02T16:54:25;8.73;;;3.90;;
17496;SDS011;62150;43.582;1.456;2024-03-02T16:56:52;9.03;;;3.33;;
17496;SDS011;62150;43.582;1.456;2024-03-02T16:59:20;7.00;;;3.20;;
17496;SDS011;62150;43.582;1.456;2024-03-02T17:01:47;4.93;;;2.73;;
17496;SDS011;62150;43.582;1.456;2024-03-02T17:04:17;7.67;;;2.60;;
17496;SDS011;62150;43.582;1.456;2024-03-02T17:06:44;6.17;;;2.47;;
17496;SDS011;62150;43.582;1.456;2024-03-02T17:09:12;7.17;;;2.73;;
17496;SDS011;62150;43.582;1.456;2024-03-02T17:11:39;4.97;;;2.50;;
17496;SDS011;62150;43.582;1.456;2024-03-02T17:14:07;5.90;;;2.60;;
17496;SDS011;62150;43.582;1.456;2024-03-02T17:16:35;7.57;;;2.93;;
17496;SDS011;62150;43.582;1.456;2024-03-02T17:19:03;6.27;;;2.73;;
17496;SDS011;62150;43.582;1.456;2024-03-02T17:21:31;7.67;;;3.10;;
17496;SDS011;62150;43.582;1.456;2024-03-02T17:23:59;6.83;;;3.00;;
17496;SDS011;62150;43.582;1.456;2024-03-02T17:26:27;4.63;;;2.43;;
17496;SDS011;62150;43.582;1.456;2024-03-02T17:28:55;6.83;;;2.40;;
17496;SDS011;62150;43.582;1.456;2024-03-02T17:31:22;9.23;;;3.63;;
17496;SDS011;62150;43.582;1.456;2024-03-02T17:33:50;10.50;;;3.80;;
17496;SDS011;62150;43.582;1.456;2024-03-02T17:36:17;9.50;;;3.40;;
17496;SDS011;62150;43.582;1.456;2024-03-02T17:38:46;6.10;;;2.80;;
17496;SDS011;62150;43.582;1.456;2024-03-02T17:41:14;8.50;;;2.93;;
17496;SDS011;62150;43.582;1.456;2024-03-02T17:43:41;6.63;;;2.57;;
17496;SDS011;62150;43.582;1.456;2024-03-02T17:46:09;7.10;;;2.70;;
17496;SDS011;62150;43.582;1.456;2024-03-02T17:48:36;7.80;;;3.07;;
17496;SDS011;62150;43.582;1.456;2024-03-02T17:51:05;9.63;;;4.10;;
17496;SDS011;62150;43.582;1.456;2024-03-02T17:53:34;9.43;;;3.80;;
17496;SDS011;62150;43.582;1.456;2024-03-02T17:56:03;9.23;;;4.30;;
17496;SDS011;62150;43.582;1.456;2024-03-02T17:58:31;9.20;;;4.30;;
17496;SDS011;62150;43.582;1.456;2024-03-02T18:00:59;9.33;;;4.00;;
17496;SDS011;62150;43.582;1.456;2024-03-02T18:03:27;9.40;;;3.50;;
17496;SDS011;62150;43.582;1.456;2024-03-02T18:05:55;7.03;;;3.23;;
17496;SDS011;62150;43.582;1.456;2024-03-02T18:08:22;7.07;;;3.00;;
17496;SDS011;62150;43.582;1.456;2024-03-02T18:10:50;8.90;;;3.10;;
17496;SDS011;62150;43.582;1.456;2024-03-02T18:13:20;6.00;;;2.90;;
17496;SDS011;62150;43.582;1.456;2024-03-02T18:15:47;5.83;;;2.73;;
17496;SDS011;62150;43.582;1.456;2024-03-02T18:18:15;5.83;;;2.70;;
17496;SDS011;62150;43.582;1.456;2024-03-02T18:20:43;8.10;;;3.10;;
17496;SDS011;62150;43.582;1.456;2024-03-02T18:23:10;6.87;;;3.10;;
17496;SDS011;62150;43.582;1.456;2024-03-02T18:25:38;9.87;;;3.80;;
17496;SDS011;62150;43.582;1.456;2024-03-02T18:28:11;8.67;;;3.80;;
17496;SDS011;62150;43.582;1.456;2024-03-02T18:30:41;9.93;;;3.70;;
17496;SDS011;62150;43.582;1.456;2024-03-02T18:33:08;10.10;;;4.40;;
17496;SDS011;62150;43.582;1.456;2024-03-02T18:35:36;10.80;;;4.33;;
17496;SDS011;62150;43.582;1.456;2024-03-02T18:38:03;7.27;;;3.10;;
17496;SDS011;62150;43.582;1.456;2024-03-02T18:40:31;9.33;;;3.30;;
17496;SDS011;62150;43.582;1.456;2024-03-02T18:42:58;8.73;;;2.97;;
17496;SDS011;62150;43.582;1.456;2024-03-02T18:45:27;7.47;;;2.73;;
17496;SDS011;62150;43.582;1.456;2024-03-02T18:47:56;5.90;;;2.50;;
17496;SDS011;62150;43.582;1.456;2024-03-02T18:50:23;4.70;;;2.20;;
17496;SDS011;62150;43.582;1.456;2024-03-02T18:52:51;5.67;;;2.30;;
17496;SDS011;62150;43.582;1.456;2024-03-02T18:55:18;6.60;;;2.30;;
17496;SDS011;62150;43.582;1.456;2024-03-02T18:57:46;3.83;;;1.90;;
17496;SDS011;62150;43.582;1.456;2024-03-02T19:00:14;3.20;;;2.00;;
17496;SDS011;62150;43.582;1.456;2024-03-02T19:02:42;3.70;;;1.90;;
17496;SDS011;62150;43.582;1.456;2024-03-02T19:05:11;3.67;;;1.80;;
17496;SDS011;62150;43.582;1.456;2024-03-02T19:07:39;3.53;;;1.67;;
17496;SDS011;62150;43.582;1.456;2024-03-02T19:10:07;3.83;;;1.60;;
17496;SDS011;62150;43.582;1.456;2024-03-02T19:12:36;2.63;;;1.73;;
17496;SDS011;62150;43.582;1.456;2024-03-02T19:15:04;3.63;;;1.80;;
17496;SDS011;62150;43.582;1.456;2024-03-02T19:17:32;1.50;;;1.40;;
17496;SDS011;62150;43.582;1.456;2024-03-02T19:19:59;2.77;;;1.53;;
17496;SDS011;62150;43.582;1.456;2024-03-02T19:22:29;2.60;;;1.40;;
17496;SDS011;62150;43.582;1.456;2024-03-02T19:25:01;1.47;;;1.37;;
17496;SDS011;62150;43.582;1.456;2024-03-02T19:27:29;1.47;;;1.33;;
17496;SDS011;62150;43.582;1.456;2024-03-02T19:29:56;2.43;;;1.20;;
17496;SDS011;62150;43.582;1.456;2024-03-02T19:32:24;0.93;;;0.90;;
17496;SDS011;62150;43.582;1.456;2024-03-02T19:34:51;1.53;;;1.20;;